Time;durP1;ratioP1;P1;durP2;ratioP2;P2;SDS_P1;SDS_P2;PMS_P1;PMS_P2;Temp;Humidity;BMP_temperature;BMP_pressure;BME280_temperature;BME280_humidity;BME280_pressure;Samples;Min_cycle;Max_cycle;Signal;HPM_P1;HPM_P2
2021/04/20 00:00:45;;;;;;;25.17;22.38;;;;;;;22.20;33.96;101727.50;5036792;28;20427;-75
2021/04/20 00:03:10;;;;;;;26.73;23.83;;;;;;;22.13;34.17;101728.16;5055414;28;20033;-75
2021/04/20 00:05:36;;;;;;;25.23;22.55;;;;;;;22.10;34.26;101734.47;5055361;28;20029;-74
2021/04/20 00:08:02;;;;;;;26.23;23.50;;;;;;;22.12;34.28;101731.31;5055282;28;20037;-74
2021/04/20 00:10:27;;;;;;;25.85;23.30;;;;;;;22.10;34.41;101728.91;5037407;28;20122;-74
2021/04/20 00:12:53;;;;;;;26.23;23.42;;;;;;;22.10;34.53;101728.91;5055121;28;20394;-74
2021/04/20 00:15:22;;;;;;;25.02;22.55;;;;;;;22.02;34.45;101729.09;5055187;28;20029;-75
2021/04/20 00:17:50;;;;;;;27.05;24.23;;;;;;;22.01;34.71;101724.72;5055145;28;20158;-75
2021/04/20 00:20:16;;;;;;;24.50;22.02;;;;;;;22.02;34.84;101731.88;5055078;28;20463;-75
2021/04/20 00:22:42;;;;;;;26.15;23.60;;;;;;;22.03;34.86;101727.91;5055077;28;20029;-75
2021/04/20 00:25:08;;;;;;;26.85;24.00;;;;;;;22.05;34.76;101737.50;5054771;28;20036;-76
2021/04/20 00:27:34;;;;;;;27.83;23.77;;;;;;;22.06;34.81;101739.09;5054795;28;20064;-74
2021/04/20 00:29:59;;;;;;;27.60;24.75;;;;;;;22.05;34.86;101733.91;5054981;28;20021;-74
2021/04/20 00:32:25;;;;;;;27.13;24.23;;;;;;;22.10;34.83;101740.03;5054827;28;20028;-74
2021/04/20 00:34:50;;;;;;;28.55;25.27;;;;;;;22.08;34.97;101730.44;5054801;28;20047;-74
2021/04/20 00:37:16;;;;;;;27.42;24.40;;;;;;;22.24;34.54;101733.13;5054774;28;20036;-74
2021/04/20 00:39:41;;;;;;;27.90;25.00;;;;;;;22.23;34.71;101734.31;5054680;28;20025;-74
2021/04/20 00:42:08;;;;;;;29.38;26.13;;;;;;;22.25;34.59;101734.75;5054688;28;20037;-74
2021/04/20 00:44:35;;;;;;;31.38;26.92;;;;;;;22.20;34.87;101733.06;5054540;28;20054;-75
2021/04/20 00:47:03;;;;;;;29.23;25.80;;;;;;;22.20;34.79;101732.25;5054495;28;20061;-75
2021/04/20 00:49:28;;;;;;;29.17;25.98;;;;;;;22.19;34.89;101733.44;5036944;28;20021;-74
2021/04/20 00:51:55;;;;;;;31.40;27.27;;;;;;;22.10;34.97;101731.69;5054512;28;20047;-74
2021/04/20 00:54:21;;;;;;;31.13;27.75;;;;;;;22.11;34.94;101736.06;5054192;28;20036;-78
2021/04/20 00:56:47;;;;;;;29.42;26.00;;;;;;;22.09;35.08;101734.84;5053299;28;20025;-78
2021/04/20 00:59:13;;;;;;;29.98;26.38;;;;;;;22.05;35.24;101725.56;5054327;28;20017;-74
2021/04/20 01:01:40;;;;;;;29.38;26.25;;;;;;;22.07;35.22;101729.63;5054355;28;20029;-78
2021/04/20 01:04:11;;;;;;;29.25;26.02;;;;;;;22.06;35.25;101727.19;5054274;28;20028;-75
2021/04/20 01:06:37;;;;;;;30.10;26.92;;;;;;;22.06;35.37;101729.97;5054177;28;20356;-74
2021/04/20 01:09:07;;;;;;;32.22;28.25;;;;;;;22.03;35.36;101739.84;5054072;28;20032;-74
2021/04/20 01:11:37;;;;;;;34.65;28.73;;;;;;;22.00;35.40;101737.03;5036399;28;20112;-75
2021/04/20 01:14:04;;;;;;;30.55;27.35;;;;;;;22.04;35.46;101724.75;5036523;28;20017;-74
2021/04/20 01:16:30;;;;;;;32.10;28.83;;;;;;;22.00;35.54;101726.69;5053859;28;20078;-75
2021/04/20 01:18:56;;;;;;;31.42;28.13;;;;;;;21.95;35.66;101732.53;5052247;28;20061;-75
2021/04/20 01:21:22;;;;;;;31.17;27.77;;;;;;;21.93;35.68;101726.53;5042217;28;20056;-75
2021/04/20 01:23:54;;;;;;;31.55;28.30;;;;;;;21.89;35.69;101725.66;5040898;28;20037;-74
2021/04/20 01:26:24;;;;;;;35.83;29.50;;;;;;;21.96;35.54;101723.00;5043772;28;20072;-74
2021/04/20 01:28:49;;;;;;;;;;;;;;;21.88;35.78;101721.25;5043485;28;20029;-74
2021/04/20 01:31:16;;;;;;;29.63;26.40;;;;;;;22.01;35.53;101728.28;5042013;28;19926;-74
2021/04/20 01:33:43;;;;;;;32.00;27.80;;;;;;;21.97;35.58;101724.63;5043663;28;20021;-75
2021/04/20 01:36:13;;;;;;;28.52;25.67;;;;;;;21.90;35.68;101721.69;5042531;28;20045;-74
2021/04/20 01:38:44;;;;;;;26.50;23.80;;;;;;;21.89;35.70;101725.66;5041456;28;20037;-74
2021/04/20 01:41:10;;;;;;;28.08;25.27;;;;;;;21.86;35.88;101723.63;5042545;28;20025;-74
2021/04/20 01:43:36;;;;;;;30.23;27.13;;;;;;;21.91;35.55;101725.28;5025543;28;20120;-74
2021/04/20 01:46:03;;;;;;;31.08;26.85;;;;;;;21.94;35.74;101724.56;5041414;28;20032;-74
2021/04/20 01:48:29;;;;;;;26.40;23.77;;;;;;;21.89;35.85;101715.31;5042515;28;20029;-74
2021/04/20 01:50:55;;;;;;;31.10;27.92;;;;;;;21.97;35.73;101715.47;5043499;28;20517;-75
2021/04/20 01:53:21;;;;;;;27.23;24.42;;;;;;;21.95;35.73;101704.72;5043370;28;20017;-79
2021/04/20 01:55:47;;;;;;;27.40;24.58;;;;;;;21.89;35.82;101718.09;5041973;28;20026;-74
2021/04/20 01:58:13;;;;;;;30.50;26.92;;;;;;;21.85;35.85;101713.66;5041853;28;20031;-74
2021/04/20 02:00:41;;;;;;;29.02;25.85;;;;;;;21.78;36.00;101714.31;5025369;28;20016;-75
2021/04/20 02:03:09;;;;;;;28.95;25.88;;;;;;;21.79;36.01;101710.38;5041723;28;20049;-74
2021/04/20 02:05:36;;;;;;;28.95;26.08;;;;;;;21.84;35.98;101712.06;5041485;28;20526;-74
2021/04/20 02:08:03;;;;;;;30.40;26.70;;;;;;;21.81;36.00;101710.78;5042676;28;20048;-74
2021/04/20 02:10:30;;;;;;;30.92;27.63;;;;;;;21.80;36.09;101708.38;5024130;28;20068;-75
2021/04/20 02:12:55;;;;;;;30.90;27.58;;;;;;;21.73;36.25;101708.22;5041245;28;20017;-75
2021/04/20 02:15:22;;;;;;;31.40;27.95;;;;;;;21.72;36.15;101704.66;5042938;28;20087;-75
2021/04/20 02:17:48;;;;;;;32.25;28.85;;;;;;;21.78;36.18;101705.16;5044636;28;20029;-74
2021/04/20 02:20:14;;;;;;;30.35;27.10;;;;;;;21.80;35.83;101703.63;5052793;28;20052;-74
2021/04/20 02:22:46;;;;;;;25.55;23.00;;;;;;;21.77;36.06;101709.13;5052502;28;20025;-75
2021/04/20 02:25:14;;;;;;;25.95;23.17;;;;;;;21.76;36.14;101707.50;5052183;28;20049;-75
2021/04/20 02:27:40;;;;;;;25.25;22.70;;;;;;;21.77;36.13;101709.94;5052300;28;20154;-75
2021/04/20 02:30:09;;;;;;;27.60;24.63;;;;;;;21.76;36.12;101704.72;5033521;28;20071;-74
2021/04/20 02:32:36;;;;;;;24.67;22.27;;;;;;;21.85;35.93;101702.53;5052633;28;20060;-78
2021/04/20 02:35:05;;;;;;;27.02;23.88;;;;;;;21.86;35.91;101715.28;5052626;28;20270;-74
2021/04/20 02:37:32;;;;;;;28.48;25.50;;;;;;;21.95;35.33;101704.72;5052447;28;20032;-74
2021/04/20 02:39:58;;;;;;;29.85;25.55;;;;;;;21.98;35.52;101703.16;5052582;28;20056;-75
2021/04/20 02:42:27;;;;;;;27.55;24.65;;;;;;;21.95;35.33;101701.13;5052405;28;20063;-76
2021/04/20 02:44:53;;;;;;;27.23;24.42;;;;;;;21.98;35.67;101701.19;5052229;28;20103;-75
2021/04/20 02:47:22;;;;;;;27.50;24.60;;;;;;;21.89;35.71;101693.06;5052392;28;20040;-75
2021/04/20 02:49:47;;;;;;;26.65;23.85;;;;;;;21.93;35.79;101698.72;5034489;28;20083;-75
2021/04/20 02:52:14;;;;;;;29.88;26.80;;;;;;;21.85;35.93;101692.22;5052350;28;20057;-75
2021/04/20 02:54:40;;;;;;;29.98;26.90;;;;;;;21.94;35.75;101703.09;5052224;28;20029;-75
2021/04/20 02:57:06;;;;;;;29.05;26.15;;;;;;;21.88;35.71;101699.00;5052259;28;20033;-78
2021/04/20 02:59:32;;;;;;;29.98;26.88;;;;;;;21.84;35.58;101695.38;5034423;28;20048;-75
2021/04/20 03:02:01;;;;;;;29.35;26.50;;;;;;;21.85;35.80;101691.41;5034434;28;20075;-75
2021/04/20 03:04:28;;;;;;;28.58;25.67;;;;;;;21.88;35.72;101696.22;5052185;28;20029;-75
2021/04/20 03:06:53;;;;;;;28.88;25.88;;;;;;;21.85;35.84;101689.44;5052147;28;20036;-75
2021/04/20 03:09:19;;;;;;;29.08;26.02;;;;;;;21.81;35.97;101693.31;5051958;28;20029;-74
2021/04/20 03:11:55;;;;;;;33.47;27.13;;;;;;;21.81;35.85;101698.88;5052090;28;20082;-75
2021/04/20 03:14:21;;;;;;;29.02;26.15;;;;;;;21.80;35.94;101695.28;5052112;28;20390;-74
2021/04/20 03:16:47;;;;;;;32.10;26.08;;;;;;;21.76;35.97;101699.94;5051859;28;20039;-74
2021/04/20 03:19:12;;;;;;;28.25;25.40;;;;;;;21.77;36.03;101693.25;5054035;28;20029;-74
2021/04/20 03:21:40;;;;;;;29.35;26.55;;;;;;;21.80;35.91;101692.50;5056041;28;20464;-75
2021/04/20 03:24:06;;;;;;;30.67;27.20;;;;;;;21.82;35.98;101694.91;5038134;28;20033;-74
2021/04/20 03:26:36;;;;;;;29.98;26.88;;;;;;;21.81;35.95;101701.66;5056069;28;20386;-74
2021/04/20 03:29:04;;;;;;;30.17;27.00;;;;;;;21.79;35.88;101709.56;5056025;28;20398;-75
2021/04/20 03:31:30;;;;;;;30.10;25.95;;;;;;;21.80;36.24;101698.06;5055740;28;20111;-74
2021/04/20 03:34:03;;;;;;;28.92;25.88;;;;;;;21.70;35.99;101707.00;5037940;28;20117;-75
2021/04/20 03:36:35;;;;;;;28.63;25.25;;;;;;;21.57;36.05;101705.53;5055975;28;20387;-74
2021/04/20 03:39:09;;;;;;;31.10;24.83;;;;;;;21.66;36.11;101706.09;5055896;28;20025;-76
2021/04/20 03:42:19;;;;;;;29.58;25.17;;;;;;;21.66;36.04;101708.09;5055797;28;20033;-74
2021/04/20 03:44:52;;;;;;;27.67;24.75;;;;;;;21.71;35.90;101713.38;5052795;28;20202;-75
2021/04/20 03:47:24;;;;;;;30.67;25.33;;;;;;;21.68;36.17;101714.06;5037742;28;20467;-74
2021/04/20 03:49:54;;;;;;;28.05;24.98;;;;;;;21.70;36.11;101714.53;5055648;28;20025;-78
2021/04/20 03:52:28;;;;;;;;;;;;;;;21.63;36.16;101709.63;5056030;28;20052;-75
2021/04/20 03:54:56;;;;;;;27.35;24.50;;;;;;;21.72;35.96;101706.63;5048765;28;19939;-76
2021/04/20 03:57:25;;;;;;;26.23;23.35;;;;;;;21.77;35.89;101707.16;5035448;28;20025;-77
2021/04/20 03:59:52;;;;;;;25.70;23.13;;;;;;;21.66;36.24;101713.66;5035498;28;20030;-75
2021/04/20 04:02:18;;;;;;;26.67;23.95;;;;;;;21.54;36.37;101711.81;5035432;28;20021;-74
2021/04/20 04:04:45;;;;;;;27.70;24.15;;;;;;;21.59;36.39;101715.09;5035118;28;20052;-74
2021/04/20 04:07:14;;;;;;;27.00;24.08;;;;;;;21.60;36.33;101722.25;5035097;28;20033;-77
2021/04/20 04:09:43;;;;;;;30.02;26.45;;;;;;;21.59;36.36;101715.09;5035111;28;20037;-74
2021/04/20 04:12:10;;;;;;;29.33;26.23;;;;;;;21.62;36.45;101712.78;5034567;28;20484;-79
2021/04/20 04:14:36;;;;;;;29.35;25.77;;;;;;;21.59;36.54;101715.09;5034405;28;20116;-76
2021/04/20 04:17:07;;;;;;;29.42;25.75;;;;;;;21.59;36.34;101712.31;5034446;28;20034;-74
2021/04/20 04:19:47;;;;;;;34.20;25.00;;;;;;;21.43;36.83;101714.34;5035099;28;20040;-74
2021/04/20 04:22:17;;;;;;;32.15;27.10;;;;;;;21.43;36.82;101714.34;5035021;28;20029;-74
2021/04/20 04:24:51;;;;;;;29.20;26.08;;;;;;;21.49;36.70;101710.13;5017226;28;20475;-74
2021/04/20 04:27:22;;;;;;;29.25;25.90;;;;;;;21.20;37.73;101711.41;5035027;28;20033;-75
2021/04/20 04:29:49;;;;;;;29.63;25.42;;;;;;;21.47;36.86;101715.25;5034662;28;20029;-75
2021/04/20 04:32:18;;;;;;;29.30;24.85;;;;;;;21.42;36.89;101725.84;5034914;28;20056;-76
2021/04/20 04:34:48;;;;;;;29.10;25.95;;;;;;;21.41;36.89;101713.91;5017116;28;20470;-75
2021/04/20 04:37:15;;;;;;;28.92;25.50;;;;;;;21.39;36.92;101715.47;5035075;28;20139;-74
2021/04/20 04:39:42;;;;;;;26.55;23.75;;;;;;;21.44;36.82;101715.16;5034518;28;20025;-75
2021/04/20 04:42:08;;;;;;;32.85;26.15;;;;;;;21.39;36.98;101721.03;5033838;28;20044;-75
2021/04/20 04:44:34;;;;;;;27.55;24.42;;;;;;;21.44;36.86;101717.94;5033845;28;20025;-75
2021/04/20 04:47:00;;;;;;;29.98;26.85;;;;;;;21.37;37.06;101720.56;5034384;28;20112;-75
2021/04/20 04:49:27;;;;;;;30.40;26.42;;;;;;;21.30;37.15;101721.19;5034628;28;20520;-75
2021/04/20 04:51:54;;;;;;;29.63;26.35;;;;;;;21.40;36.93;101722.63;5016811;28;20025;-75
2021/04/20 04:54:21;;;;;;;33.92;29.52;;;;;;;21.37;36.98;101721.34;5034438;28;20029;-77
2021/04/20 04:56:48;;;;;;;31.60;28.13;;;;;;;21.33;37.10;101718.50;5034267;28;20037;-75
2021/04/20 04:59:19;;;;;;;38.17;30.35;;;;;;;21.41;37.02;101727.00;5034330;28;20041;-75
2021/04/20 05:01:46;;;;;;;33.75;28.48;;;;;;;21.44;36.83;101724.31;5034322;28;20033;-75
2021/04/20 05:04:13;;;;;;;34.58;30.40;;;;;;;21.35;37.04;101726.47;5033823;28;20049;-75
2021/04/20 05:06:47;;;;;;;34.53;29.35;;;;;;;21.28;37.32;101726.31;5034272;28;20040;-75
2021/04/20 05:09:15;;;;;;;32.42;29.02;;;;;;;21.32;37.17;101735.56;5034185;28;20459;-74
2021/04/20 05:11:45;;;;;;;32.72;28.65;;;;;;;21.21;37.35;101726.94;5016422;28;20088;-75
2021/04/20 05:14:13;;;;;;;30.52;27.15;;;;;;;21.28;37.20;101731.88;5034163;28;20064;-75
2021/04/20 05:16:40;;;;;;;33.17;28.75;;;;;;;21.16;37.44;101723.63;5034112;28;20045;-79
2021/04/20 05:19:09;;;;;;;48.85;30.50;;;;;;;21.10;37.68;101727.84;5034098;28;20029;-74
2021/04/20 05:21:35;;;;;;;41.38;30.25;;;;;;;21.00;37.92;101735.56;5016632;28;20064;-75
2021/04/20 05:24:00;;;;;;;40.15;30.70;;;;;;;20.94;38.07;101725.09;5016088;28;20025;-74
2021/04/20 05:26:27;;;;;;;30.58;27.48;;;;;;;21.12;37.43;101734.66;5033548;28;20575;-75
2021/04/20 05:28:56;;;;;;;30.67;27.45;;;;;;;21.05;37.79;101728.94;5033693;28;20108;-75
2021/04/20 05:31:22;;;;;;;31.67;28.42;;;;;;;21.17;37.56;101730.81;5000062;28;20068;-75
2021/04/20 05:34:00;;;;;;;35.15;28.85;;;;;;;21.14;37.44;101731.50;5033744;28;20053;-75
2021/04/20 05:36:26;;;;;;;31.63;28.30;;;;;;;21.15;37.48;101733.13;5033693;28;20028;-74
2021/04/20 05:38:54;;;;;;;32.97;29.25;;;;;;;21.09;37.77;101734.59;5033581;28;20021;-75
2021/04/20 05:41:30;;;;;;;35.78;29.50;;;;;;;20.99;38.12;101738.69;5032879;28;20105;-78
2021/04/20 05:43:58;;;;;;;35.30;26.92;;;;;;;21.04;37.94;101722.56;5033631;28;20037;-75
2021/04/20 05:46:24;;;;;;;30.20;27.00;;;;;;;21.08;37.66;101733.75;5033272;28;20037;-77
2021/04/20 05:48:52;;;;;;;31.35;26.38;;;;;;;21.14;37.71;101740.66;5033494;28;20036;-75
2021/04/20 05:51:19;;;;;;;30.20;27.15;;;;;;;21.09;37.74;101734.59;5032994;28;20030;-75
2021/04/20 05:53:46;;;;;;;33.10;27.13;;;;;;;21.00;37.93;101738.34;5032977;28;20392;-75
2021/04/20 05:56:14;;;;;;;29.98;26.83;;;;;;;21.05;37.87;101740.03;5032650;28;20052;-74
2021/04/20 05:58:40;;;;;;;32.85;27.90;;;;;;;20.73;38.56;101744.81;5021732;28;20190;-74
2021/04/20 06:01:05;;;;;;;32.65;28.42;;;;;;;20.81;38.54;101749.38;5050855;28;20525;-75
2021/04/20 06:03:37;;;;;;;32.10;28.27;;;;;;;21.03;38.10;101754.31;5052463;28;20033;-73
2021/04/20 06:06:04;;;;;;;37.80;30.85;;;;;;;21.12;37.97;101756.09;5051790;28;20067;-74
2021/04/20 06:08:34;;;;;;;39.00;34.05;;;;;;;20.93;38.59;101759.56;5052357;28;20103;-75
2021/04/20 06:11:02;;;;;;;41.00;33.38;;;;;;;21.02;38.43;101755.47;5033933;28;20395;-76
2021/04/20 06:13:27;;;;;;;39.67;32.38;;;;;;;20.93;38.55;101754.84;5052134;28;20499;-75
2021/04/20 06:15:54;;;;;;;47.55;33.63;;;;;;;20.99;38.64;101755.38;5035032;28;20163;-74
2021/04/20 06:18:21;;;;;;;37.33;33.15;;;;;;;20.96;38.70;101762.47;5052820;28;20032;-74
2021/04/20 06:20:48;;;;;;;43.58;33.65;;;;;;;20.91;38.91;101754.38;5052592;28;20029;-75
2021/04/20 06:23:14;;;;;;;45.25;36.78;;;;;;;21.00;38.69;101765.31;5022926;28;20021;-75
2021/04/20 06:25:40;;;;;;;38.53;32.75;;;;;;;20.96;38.91;101762.47;5032560;28;20056;-77
2021/04/20 06:28:08;;;;;;;46.03;35.00;;;;;;;21.05;38.83;101762.28;5038264;28;20041;-75
2021/04/20 06:30:33;;;;;;;48.30;37.63;;;;;;;20.99;38.97;101758.94;5040913;28;20032;-78
2021/04/20 06:33:00;;;;;;;48.88;38.92;;;;;;;21.10;38.90;101761.19;5042353;28;20028;-74
2021/04/20 06:35:27;;;;;;;43.53;37.50;;;;;;;21.02;39.13;101755.47;5040741;28;20053;-75
2021/04/20 06:37:54;;;;;;;43.65;37.90;;;;;;;21.01;39.17;101761.41;5041508;28;20437;-74
2021/04/20 06:40:25;;;;;;;49.47;38.47;;;;;;;21.16;38.84;101760.56;5027262;28;20025;-75
2021/04/20 06:42:57;;;;;;;49.75;39.75;;;;;;;21.09;39.16;101763.19;5020104;28;20084;-74
2021/04/20 06:45:52;;;;;;;50.25;40.00;;;;;;;21.01;39.35;101759.41;5042417;28;20028;-80
2021/04/20 06:48:33;;;;;;;47.75;39.97;;;;;;;21.06;39.28;101759.13;5042099;28;20037;-73
2021/04/20 06:51:00;;;;;;;49.83;38.08;;;;;;;21.15;39.17;101770.06;5046681;28;20030;-78
2021/04/20 06:53:33;;;;;;;43.53;37.25;;;;;;;21.23;38.90;101765.47;5025310;28;20025;-74
2021/04/20 06:56:28;;;;;;;45.95;35.50;;;;;;;21.37;38.78;101770.59;5040364;28;21291;-73
2021/04/20 06:59:02;;;;;;;42.95;36.63;;;;;;;21.40;38.83;101770.69;5039640;28;20106;-79
2021/04/20 07:01:53;;;;;;;41.90;36.97;;;;;;;21.27;39.41;101775.53;5021775;28;20048;-75
2021/04/20 07:04:45;;;;;;;37.47;32.53;;;;;;;21.57;38.50;101781.41;5040123;28;20040;-75
2021/04/20 07:07:26;;;;;;;39.45;35.08;;;;;;;21.65;38.50;101784.34;5037635;28;20091;-74
2021/04/20 07:09:58;;;;;;;44.08;35.60;;;;;;;21.55;38.70;101780.16;5041204;28;20821;-77
2021/04/20 07:12:25;;;;;;;41.00;34.97;;;;;;;21.70;38.54;101775.72;5026094;28;20026;-78
2021/04/20 07:14:54;;;;;;;46.25;36.70;;;;;;;21.70;38.66;101790.44;5045180;28;20026;-77
2021/04/20 07:17:48;;;;;;;40.80;36.17;;;;;;;21.70;38.62;101775.72;5042384;28;20017;-76
2021/04/20 07:20:31;;;;;;;44.25;36.90;;;;;;;21.62;38.91;101776.75;5041762;28;20043;-79
2021/04/20 07:23:19;;;;;;;43.47;35.90;;;;;;;21.66;39.00;101783.19;5024150;28;20031;-76
2021/04/20 07:25:59;;;;;;;37.30;33.42;;;;;;;21.77;38.67;101776.69;5019936;28;20048;-76
2021/04/20 07:28:45;;;;;;;37.63;33.53;;;;;;;21.52;39.32;101786.44;5016030;28;20065;-76
2021/04/20 07:31:43;;;;;;;38.90;34.70;;;;;;;21.47;39.17;101792.28;5028072;28;20048;-75
2021/04/20 07:34:22;;;;;;;41.67;35.78;;;;;;;21.75;38.87;101789.34;4980075;28;20105;-81
2021/04/20 07:37:12;;;;;;;48.55;39.03;;;;;;;21.81;38.70;101788.69;5027476;28;20126;-77
2021/04/20 07:40:05;;;;;;;39.65;32.78;;;;;;;21.79;38.70;101791.03;5045491;28;20025;-77
2021/04/20 07:43:01;;;;;;;43.78;34.55;;;;;;;21.74;39.13;101790.50;5040148;28;20036;-77
2021/04/20 07:45:46;;;;;;;37.35;32.42;;;;;;;21.90;38.57;101796.81;5029563;28;20040;-78
2021/04/20 07:48:49;;;;;;;37.58;32.08;;;;;;;21.82;38.48;101804.19;5026854;28;20053;-80
2021/04/20 07:51:46;;;;;;;36.80;31.50;;;;;;;21.83;38.39;101805.00;5041798;28;20448;-79
2021/04/20 07:54:40;;;;;;;38.63;32.42;;;;;;;21.89;38.19;101806.34;5039145;28;20021;-77
2021/04/20 07:57:15;;;;;;;36.50;32.22;;;;;;;22.10;38.01;101803.25;5043552;28;20542;-78
2021/04/20 07:59:49;;;;;;;38.60;34.47;;;;;;;22.13;37.92;101805.28;5046561;28;20028;-83
2021/04/20 08:02:37;;;;;;;36.95;32.85;;;;;;;22.14;38.11;101818.84;5043421;28;20045;-77
2021/04/20 08:05:02;;;;;;;36.72;31.88;;;;;;;22.21;38.00;101811.81;5043089;28;20035;-85
2021/04/20 08:07:47;;;;;;;38.10;33.63;;;;;;;22.13;37.96;101820.00;5044642;28;20116;-79
2021/04/20 08:10:13;;;;;;;36.60;30.08;;;;;;;22.26;37.73;101814.31;5042684;28;20025;-77
2021/04/20 08:12:48;;;;;;;36.80;31.30;;;;;;;22.22;37.87;101818.97;5048087;28;20052;-82
2021/04/20 08:15:20;;;;;;;37.05;28.98;;;;;;;22.20;37.87;101819.34;5045531;28;20025;-80
2021/04/20 08:18:21;;;;;;;38.55;31.15;;;;;;;22.28;37.31;101818.31;5046486;28;20100;-80
2021/04/20 08:20:48;;;;;;;33.45;28.33;;;;;;;22.31;37.62;101816.78;5045278;28;20578;-80
2021/04/20 08:23:16;;;;;;;35.80;29.77;;;;;;;22.33;37.38;101823.59;5045147;28;20021;-84
2021/04/20 08:25:52;;;;;;;32.00;28.70;;;;;;;22.37;37.25;101820.91;5045190;28;20490;-80
2021/04/20 08:28:35;;;;;;;33.30;28.88;;;;;;;22.48;37.23;101821.91;5044861;28;20072;-82
2021/04/20 08:31:12;;;;;;;39.22;30.30;;;;;;;22.47;37.33;101817.50;5045697;28;20020;-80
2021/04/20 08:33:44;;;;;;;33.05;29.52;;;;;;;22.50;37.36;101819.56;5027575;28;20028;-81
2021/04/20 08:36:55;;;;;;;36.70;28.85;;;;;;;22.38;37.66;101817.75;5049177;28;20360;-79
2021/04/20 08:39:26;;;;;;;32.45;28.58;;;;;;;22.60;37.24;101815.38;5008957;28;20029;-80
2021/04/20 08:42:03;;;;;;;31.35;28.05;;;;;;;22.62;36.97;101808.25;5025402;28;20494;-81
2021/04/20 08:44:40;;;;;;;34.03;29.52;;;;;;;22.83;36.69;101818.19;5036981;28;20025;-80
2021/04/20 08:47:33;;;;;;;31.63;27.75;;;;;;;22.68;37.13;101809.56;5053951;28;20052;-86
2021/04/20 08:50:27;;;;;;;32.30;28.27;;;;;;;22.85;36.70;101816.66;5044315;28;20029;-72
2021/04/20 08:53:14;;;;;;;31.20;27.65;;;;;;;23.12;36.37;101817.50;5040651;28;20021;-88
2021/04/20 08:55:47;;;;;;;31.40;27.95;;;;;;;23.15;36.41;101824.34;5048291;28;20107;-77
2021/04/20 08:58:50;;;;;;;33.38;27.45;;;;;;;23.13;36.43;101819.16;5037371;28;20391;-78
2021/04/20 09:01:42;;;;;;;30.85;27.20;;;;;;;23.32;36.09;101823.00;5043468;28;20026;-84
2021/04/20 09:04:37;;;;;;;29.05;25.70;;;;;;;23.24;36.16;101820.13;5054443;28;20094;-76
2021/04/20 09:07:39;;;;;;;32.00;28.25;;;;;;;23.33;35.83;101824.63;5036636;28;20072;-76
2021/04/20 09:10:14;;;;;;;33.15;26.52;;;;;;;23.52;35.74;101828.13;5048538;28;20479;-79
2021/04/20 09:12:41;;;;;;;32.03;27.45;;;;;;;23.55;35.37;101829.34;5073821;28;20081;-75
2021/04/20 09:15:09;;;;;;;30.80;26.48;;;;;;;23.51;35.33;101826.53;5054551;28;20020;-75
2021/04/20 09:17:42;;;;;;;32.70;25.15;;;;;;;23.57;35.43;101832.56;5045214;28;20044;-81
2021/04/20 09:20:13;;;;;;;27.35;24.42;;;;;;;23.44;35.50;101831.19;5039477;28;20028;-81
2021/04/20 09:23:00;;;;;;;30.05;26.95;;;;;;;23.67;35.32;101840.34;5043921;28;20493;-75
2021/04/20 09:25:52;;;;;;;36.83;27.08;;;;;;;23.67;35.62;101843.13;5045434;28;20041;-75
2021/04/20 09:28:30;;;;;;;29.45;25.42;;;;;;;23.52;35.33;101833.72;5044016;28;20437;-80
2021/04/20 09:31:01;;;;;;;26.55;23.73;;;;;;;23.86;34.67;101839.41;5025131;28;20028;-75
2021/04/20 09:33:51;;;;;;;39.33;26.85;;;;;;;23.80;34.91;101835.31;5042780;28;20029;-76
2021/04/20 09:36:18;;;;;;;35.53;26.15;;;;;;;23.83;35.02;101842.16;5044831;28;20025;-77
2021/04/20 09:38:47;;;;;;;30.02;24.48;;;;;;;23.90;34.93;101837.47;5043971;28;20086;-74
2021/04/20 09:41:14;;;;;;;50.20;27.07;;;;;;;23.93;34.93;101838.69;5045542;28;20027;-80
2021/04/20 09:43:57;;;;;;;32.88;23.33;;;;;;;24.14;34.34;101835.38;5042157;28;20028;-77
2021/04/20 09:46:37;;;;;;;26.38;23.38;;;;;;;24.16;34.23;101841.38;5043368;28;20013;-79
2021/04/20 09:49:12;;;;;;;21.95;19.50;;;;;;;24.25;34.17;101841.91;5043169;28;20024;-76
2021/04/20 09:51:47;;;;;;;30.20;20.48;;;;;;;24.28;33.81;101843.94;5041540;28;20025;-79
2021/04/20 09:54:23;;;;;;;42.63;24.75;;;;;;;24.29;33.71;101843.56;5043247;28;20493;-77
2021/04/20 09:56:53;;;;;;;59.22;26.67;;;;;;;24.35;34.17;101850.47;5041507;28;20108;-75
2021/04/20 09:59:25;;;;;;;25.42;18.55;;;;;;;24.50;33.88;101840.25;5042182;28;20029;-76
2021/04/20 10:02:10;;;;;;;26.55;23.75;;;;;;;24.44;34.06;101846.56;5042170;28;20412;-75
2021/04/20 10:04:41;;;;;;;28.83;17.23;;;;;;;24.46;33.39;101846.97;5040574;28;20044;-75
2021/04/20 10:07:44;;;;;;;28.00;19.35;;;;;;;24.47;33.40;101840.19;5017428;28;20029;-76
2021/04/20 10:10:19;;;;;;;27.17;21.02;;;;;;;24.71;32.93;101845.28;5046016;28;20081;-76
2021/04/20 10:13:25;;;;;;;32.05;16.88;;;;;;;24.65;32.59;101843.22;5041346;28;20046;-77
2021/04/20 10:16:04;;;;;;;18.75;16.00;;;;;;;24.92;32.87;101848.25;5042826;28;20366;-78
2021/04/20 10:19:12;;;;;;;32.20;20.75;;;;;;;24.96;32.89;101839.94;5041407;28;20022;-74
2021/04/20 10:21:59;;;;;;;49.75;23.38;;;;;;;24.87;32.53;101845.84;4981323;28;20031;-75
2021/04/20 10:24:27;;;;;;;22.13;18.60;;;;;;;24.73;32.84;101845.69;4974094;28;20055;-75
2021/04/20 10:27:05;;;;;;;38.80;18.35;;;;;;;24.70;32.99;101845.63;5020287;28;20071;-75
2021/04/20 10:29:56;;;;;;;24.45;18.60;;;;;;;24.75;32.40;101846.09;5024060;28;20025;-75
2021/04/20 10:32:30;;;;;;;20.92;13.93;;;;;;;24.72;32.15;101849.69;5044070;28;20053;-75
2021/04/20 10:34:57;;;;;;;18.02;13.55;;;;;;;24.85;32.38;101847.38;5043896;28;20020;-75
2021/04/20 10:37:39;;;;;;;16.00;14.30;;;;;;;24.91;31.97;101855.03;5041965;28;20072;-80
2021/04/20 10:40:23;;;;;;;27.73;17.23;;;;;;;24.76;32.42;101850.50;5039151;28;20028;-76
2021/04/20 10:42:50;;;;;;;17.77;15.68;;;;;;;24.75;32.59;101850.88;5040904;28;20119;-76
2021/04/20 10:45:20;;;;;;;23.45;15.70;;;;;;;24.73;32.49;101854.06;5039206;28;20022;-75
2021/04/20 10:47:52;;;;;;;19.77;17.70;;;;;;;24.58;32.58;101853.13;5038607;28;20037;-80
2021/04/20 10:50:22;;;;;;;21.92;15.43;;;;;;;24.80;32.34;101851.34;5042133;28;20719;-75
2021/04/20 10:52:53;;;;;;;31.08;19.52;;;;;;;24.79;32.71;101851.75;5038482;28;20034;-76
2021/04/20 10:55:24;;;;;;;25.42;20.60;;;;;;;24.87;32.23;101853.44;5031702;28;20026;-75
2021/04/20 10:57:50;;;;;;;19.33;13.50;;;;;;;25.14;32.30;101856.88;5060438;28;20478;-75
2021/04/20 11:00:19;;;;;;;14.73;11.55;;;;;;;25.15;31.87;101853.69;5071441;28;20032;-80
2021/04/20 11:02:49;;;;;;;25.02;15.55;;;;;;;24.99;31.75;101857.91;5051863;28;20513;-75
2021/04/20 11:05:20;;;;;;;20.98;16.85;;;;;;;25.02;31.64;101857.97;5026371;28;20029;-77
2021/04/20 11:07:47;;;;;;;24.30;14.60;;;;;;;25.19;31.86;101853.75;5041930;28;20028;-76
2021/04/20 11:10:15;;;;;;;26.67;16.58;;;;;;;25.13;31.70;101853.28;5043760;28;20032;-75
2021/04/20 11:12:46;;;;;;;22.38;16.38;;;;;;;25.00;31.81;101842.75;5041546;28;20052;-75
2021/04/20 11:15:28;;;;;;;27.38;17.23;;;;;;;24.97;31.88;101857.50;5042704;28;20164;-74
2021/04/20 11:17:54;;;;;;;19.52;17.52;;;;;;;24.95;31.94;101849.50;5045837;28;20025;-77
2021/04/20 11:20:28;;;;;;;15.30;13.75;;;;;;;25.03;31.74;101850.38;5041592;28;20037;-74
2021/04/20 11:23:06;;;;;;;27.33;19.98;;;;;;;24.80;32.16;101854.16;5049135;28;20360;-74
2021/04/20 11:25:36;;;;;;;24.42;21.73;;;;;;;24.76;32.03;101849.69;5041690;28;20067;-75
2021/04/20 11:28:14;;;;;;;18.75;16.65;;;;;;;24.82;32.00;101860.16;5039877;28;20059;-74
2021/04/20 11:30:50;;;;;;;22.88;18.48;;;;;;;24.94;32.28;101859.09;5013774;28;20398;-73
2021/04/20 11:33:23;;;;;;;26.77;19.08;;;;;;;24.84;32.55;101859.75;5045402;28;20051;-74